Time;durP1;ratioP1;P1;durP2;ratioP2;P2;SDS_P1;SDS_P2;PMS_P1;PMS_P2;Temp;Humidity;BMP_temperature;BMP_pressure;BME280_temperature;BME280_humidity;BME280_pressure;Samples;Min_cycle;Max_cycle;Signal;HPM_P1;HPM_P2
2022/06/30 00:02:01;;;;;;;23.80;21.70;;;;;;;21.52;100.00;98627.61;104942;1271;60596;-77
2022/06/30 00:04:28;;;;;;;23.00;20.80;;;;;;;21.47;100.00;98623.80;105267;1271;61376;-76
2022/06/30 00:06:55;;;;;;;21.90;19.80;;;;;;;21.44;100.00;98627.08;105241;1271;74341;-76
2022/06/30 00:09:21;;;;;;;22.80;20.60;;;;;;;21.37;100.00;98626.75;105283;1271;69482;-76
2022/06/30 00:11:48;;;;;;;23.00;20.80;;;;;;;21.28;100.00;98622.04;105237;1269;73736;-78
2022/06/30 00:14:15;;;;;;;22.30;20.20;;;;;;;21.18;100.00;98621.19;105232;1271;60504;-78
2022/06/30 00:16:41;;;;;;;21.80;19.80;;;;;;;21.12;100.00;98616.52;105260;1271;60492;-77
2022/06/30 00:19:08;;;;;;;27.60;25.10;;;;;;;21.08;100.00;98607.40;105252;1271;74329;-77
2022/06/30 00:21:35;;;;;;;26.00;23.60;;;;;;;21.08;100.00;98608.52;105275;1271;70116;-77
2022/06/30 00:24:01;;;;;;;23.10;20.80;;;;;;;21.10;100.00;98604.10;105246;1269;74305;-77
2022/06/30 00:26:28;;;;;;;22.80;20.80;;;;;;;21.11;100.00;98606.67;105257;1271;60594;-77
2022/06/30 00:28:55;;;;;;;24.40;22.20;;;;;;;21.12;100.00;98608.39;105201;1271;60798;-77
2022/06/30 00:31:22;;;;;;;24.10;22.10;;;;;;;21.09;100.00;98603.73;105265;1269;74722;-77
2022/06/30 00:33:49;;;;;;;26.10;23.40;;;;;;;21.04;100.00;98604.55;105237;1271;70185;-77
2022/06/30 00:36:16;;;;;;;24.50;22.20;;;;;;;21.05;100.00;98602.34;105216;1270;73149;-77
2022/06/30 00:38:43;;;;;;;24.40;21.90;;;;;;;21.10;100.00;98602.71;105043;1271;61112;-77
2022/06/30 00:41:10;;;;;;;25.50;23.00;;;;;;;21.13;100.00;98599.82;104909;1272;60563;-77
2022/06/30 00:43:47;;;;;;;24.30;22.00;;;;;;;21.14;100.00;98596.45;105238;1271;75521;-77
2022/06/30 00:46:15;;;;;;;25.40;22.90;;;;;;;21.17;100.00;98591.64;105278;1271;69566;-77
2022/06/30 00:48:43;;;;;;;24.80;22.50;;;;;;;21.18;100.00;98588.11;105234;1270;74414;-76
2022/06/30 00:51:10;;;;;;;24.30;21.80;;;;;;;21.20;100.00;98581.80;104994;1271;60987;-77
2022/06/30 00:53:39;;;;;;;23.60;21.30;;;;;;;21.18;100.00;98583.85;105236;1271;60460;-77
2022/06/30 00:56:09;;;;;;;23.50;21.10;;;;;;;21.13;100.00;98582.44;105247;1271;74578;-77
2022/06/30 00:58:41;;;;;;;23.20;21.00;;;;;;;21.10;100.00;98580.80;105245;1269;69322;-76
2022/06/30 01:01:10;;;;;;;23.30;21.30;;;;;;;21.06;100.00;98580.56;105533;1271;73621;-77
2022/06/30 01:03:37;;;;;;;23.80;21.60;;;;;;;21.00;100.00;98580.30;105235;1271;60864;-77
2022/06/30 01:06:05;;;;;;;22.40;20.30;;;;;;;20.98;100.00;98580.02;105286;1271;62166;-77
2022/06/30 01:08:33;;;;;;;22.80;20.80;;;;;;;20.96;100.00;98578.80;105272;1271;74664;-75
2022/06/30 01:13:46;;;;;;;24.00;21.60;;;;;;;20.90;100.00;98584.52;105043;1271;74479;-76
2022/06/30 01:16:13;;;;;;;21.90;20.10;;;;;;;20.84;100.00;98588.00;105256;1271;60567;-77
2022/06/30 01:18:40;;;;;;;23.80;21.60;;;;;;;20.80;100.00;98591.52;105578;1271;61840;-76
2022/06/30 01:21:07;;;;;;;23.50;21.20;;;;;;;20.77;100.00;98592.75;105248;1271;75550;-76
2022/06/30 01:23:33;;;;;;;24.50;21.90;;;;;;;20.75;100.00;98595.21;105266;1271;70409;-76
2022/06/30 01:26:00;;;;;;;24.10;21.80;;;;;;;20.73;100.00;98597.02;105237;1271;60405;-77
2022/06/30 01:28:26;;;;;;;23.30;21.10;;;;;;;20.74;100.00;98594.02;105228;1271;60536;-77
2022/06/30 01:30:53;;;;;;;23.50;21.40;;;;;;;20.79;100.00;98591.45;105260;1271;60687;-77
2022/06/30 01:33:20;;;;;;;23.40;21.20;;;;;;;20.82;100.00;98588.33;105026;1271;75593;-77
2022/06/30 01:35:46;;;;;;;24.10;21.70;;;;;;;20.84;100.00;98585.60;105211;1271;68381;-77
2022/06/30 01:38:13;;;;;;;23.40;21.30;;;;;;;20.87;100.00;98586.98;105239;1271;60494;-76
2022/06/30 01:40:39;;;;;;;23.70;21.60;;;;;;;20.87;100.00;98586.94;105223;1271;61017;-78
2022/06/30 01:43:11;;;;;;;24.40;22.00;;;;;;;20.84;100.00;98583.42;105264;1271;60447;-76
2022/06/30 01:45:39;;;;;;;23.00;20.70;;;;;;;20.82;100.00;98580.23;105637;1270;74379;-76
2022/06/30 01:48:06;;;;;;;22.70;20.70;;;;;;;20.82;100.00;98575.52;105192;1271;69437;-76
2022/06/30 01:50:34;;;;;;;24.40;22.10;;;;;;;20.83;100.00;98571.42;105253;1271;74114;-77
2022/06/30 01:53:01;;;;;;;23.20;20.70;;;;;;;20.83;100.00;98572.41;104995;1271;60479;-77
2022/06/30 01:55:28;;;;;;;23.90;21.60;;;;;;;20.81;100.00;98572.25;105252;1271;61756;-77
2022/06/30 01:57:56;;;;;;;23.10;20.70;;;;;;;20.79;100.00;98569.52;105240;1271;74315;-76
2022/06/30 02:00:29;;;;;;;23.50;21.20;;;;;;;20.76;100.00;98566.66;105414;1271;69225;-75
2022/06/30 02:02:57;;;;;;;22.50;20.40;;;;;;;20.72;100.00;98569.73;105223;1271;73807;-77
2022/06/30 02:05:25;;;;;;;25.50;22.40;;;;;;;20.67;100.00;98562.21;105228;1271;60771;-76
2022/06/30 02:07:52;;;;;;;22.50;20.40;;;;;;;20.63;100.00;98562.23;105230;1270;61030;-76
2022/06/30 02:10:24;;;;;;;23.10;21.00;;;;;;;20.58;100.00;98564.80;105255;1271;75252;-77
2022/06/30 02:12:52;;;;;;;23.50;21.20;;;;;;;20.56;100.00;98561.99;105374;1271;68424;-76
2022/06/30 02:15:34;;;;;;;23.40;21.20;;;;;;;20.56;100.00;98562.54;105223;1271;73257;-77
2022/06/30 02:18:04;;;;;;;22.40;20.30;;;;;;;20.56;100.00;98561.19;105259;1271;60448;-77
2022/06/30 02:20:31;;;;;;;25.30;22.80;;;;;;;20.58;100.00;98555.76;104956;1271;61013;-77
2022/06/30 02:23:00;;;;;;;24.60;22.30;;;;;;;20.58;100.00;98555.77;105491;1271;75314;-76
2022/06/30 02:25:29;;;;;;;23.90;21.50;;;;;;;20.60;100.00;98552.67;104995;1271;67837;-76
2022/06/30 02:27:56;;;;;;;24.50;22.30;;;;;;;20.62;100.00;98559.16;105282;1271;71818;-76
2022/06/30 02:30:24;;;;;;;22.70;20.70;;;;;;;20.63;100.00;98561.73;105001;1272;61070;-77
2022/06/30 02:32:52;;;;;;;24.30;21.90;;;;;;;20.63;100.00;98563.31;105301;1271;62148;-76
2022/06/30 02:35:19;;;;;;;24.50;22.10;;;;;;;20.68;100.00;98564.73;104956;1271;75708;-78
2022/06/30 02:37:45;;;;;;;23.80;21.50;;;;;;;20.72;100.00;98567.29;105261;1271;69203;-76
2022/06/30 02:40:12;;;;;;;24.10;21.70;;;;;;;20.76;100.00;98560.33;105263;1271;74399;-76
2022/06/30 02:42:39;;;;;;;23.60;21.40;;;;;;;20.78;100.00;98553.86;105205;1271;61327;-77
2022/06/30 02:45:06;;;;;;;22.80;20.70;;;;;;;20.80;100.00;98562.77;105030;1271;61815;-76
2022/06/30 02:47:35;;;;;;;22.80;20.80;;;;;;;20.80;100.00;98559.66;105017;1271;75320;-76
2022/06/30 02:50:04;;;;;;;23.40;21.30;;;;;;;20.81;100.00;98566.87;105309;1271;70168;-77
2022/06/30 02:52:33;;;;;;;23.90;21.70;;;;;;;20.79;100.00;98562.58;105231;1271;74243;-77
2022/06/30 02:55:00;;;;;;;23.70;21.60;;;;;;;20.76;100.00;98559.24;105472;1271;60468;-77
2022/06/30 02:57:27;;;;;;;25.10;21.40;;;;;;;20.78;100.00;98561.20;105210;1270;61772;-76
2022/06/30 02:59:55;;;;;;;23.70;21.60;;;;;;;20.82;100.00;98563.23;105014;1272;72606;-76
2022/06/30 03:02:22;;;;;;;23.20;20.80;;;;;;;20.86;100.00;98566.27;105235;1271;70431;-76
2022/06/30 03:04:49;;;;;;;22.50;20.20;;;;;;;20.91;100.00;98568.52;105237;1271;74432;-77
2022/06/30 03:07:16;;;;;;;22.10;20.00;;;;;;;20.94;100.00;98571.50;104998;1271;60618;-76
2022/06/30 03:09:43;;;;;;;21.80;19.80;;;;;;;20.98;100.00;98574.59;105209;1271;59738;-77
2022/06/30 03:12:10;;;;;;;21.90;19.60;;;;;;;21.05;100.00;98571.11;105276;1271;75302;-76
2022/06/30 03:14:36;;;;;;;20.40;18.60;;;;;;;21.11;100.00;98574.48;105223;1271;69787;-77
2022/06/30 03:17:03;;;;;;;22.90;19.20;;;;;;;21.17;100.00;98578.00;105195;1271;74122;-76
2022/06/30 03:19:30;;;;;;;22.70;18.80;;;;;;;21.22;100.00;98578.61;105013;1271;60487;-76
2022/06/30 03:21:56;;;;;;;20.70;18.90;;;;;;;21.30;100.00;98579.52;105006;1272;61804;-76
2022/06/30 03:24:23;;;;;;;20.60;18.80;;;;;;;21.38;100.00;98578.36;105259;1271;75324;-76
2022/06/30 03:26:50;;;;;;;19.60;17.60;;;;;;;21.46;100.00;98581.59;105009;1272;69188;-76
2022/06/30 03:29:16;;;;;;;19.60;17.50;;;;;;;21.58;100.00;98584.21;105271;1271;72150;-76
2022/06/30 03:31:43;;;;;;;18.70;17.00;;;;;;;21.77;100.00;98604.71;105298;1271;61111;-76
2022/06/30 03:34:10;;;;;;;19.90;17.90;;;;;;;22.01;100.00;98629.81;105266;1271;60901;-76
2022/06/30 03:36:37;;;;;;;19.30;17.40;;;;;;;22.45;100.00;98634.84;105296;1271;73543;-77
2022/06/30 03:39:04;;;;;;;19.00;17.30;;;;;;;22.85;100.00;98641.21;105224;1271;69828;-76
2022/06/30 03:41:31;;;;;;;17.90;16.20;;;;;;;23.40;100.00;98650.58;105242;1271;73366;-77
2022/06/30 03:43:58;;;;;;;18.80;17.10;;;;;;;23.92;100.00;98642.04;105265;1271;60476;-75
2022/06/30 03:46:24;;;;;;;18.70;17.20;;;;;;;24.36;100.00;98648.77;105265;1271;61759;-78
2022/06/30 03:48:51;;;;;;;19.20;17.50;;;;;;;24.75;100.00;98649.39;104947;1271;74626;-76
2022/06/30 03:51:17;;;;;;;17.10;15.70;;;;;;;25.19;100.00;98649.02;105239;1271;69164;-76
2022/06/30 03:53:44;;;;;;;18.50;16.60;;;;;;;25.56;100.00;98655.77;105267;1271;74352;-77
2022/06/30 03:56:11;;;;;;;16.30;14.80;;;;;;;25.88;100.00;98657.49;105278;1271;61092;-75
2022/06/30 03:58:37;;;;;;;16.70;15.00;;;;;;;26.20;100.00;98660.90;105269;1270;60430;-75
2022/06/30 04:01:04;;;;;;;15.70;14.40;;;;;;;26.54;100.00;98658.47;105270;1271;74919;-75
2022/06/30 04:03:31;;;;;;;15.40;13.80;;;;;;;26.94;100.00;98656.44;105270;1270;70274;-75
2022/06/30 04:05:57;;;;;;;16.00;13.90;;;;;;;27.44;100.00;98648.83;104983;1271;74441;-76
2022/06/30 04:08:24;;;;;;;15.40;13.90;;;;;;;27.87;100.00;98644.87;105214;1271;60587;-77
2022/06/30 04:10:51;;;;;;;14.80;13.50;;;;;;;28.30;100.00;98639.02;105294;1271;60811;-78
2022/06/30 04:13:18;;;;;;;15.70;14.20;;;;;;;28.73;100.00;98639.29;105292;1269;75395;-75
2022/06/30 04:15:45;;;;;;;15.10;13.80;;;;;;;29.05;100.00;98633.23;105257;1271;69120;-78
2022/06/30 04:18:12;;;;;;;15.40;14.10;;;;;;;29.23;100.00;98628.48;105271;1271;73451;-77
2022/06/30 04:20:39;;;;;;;16.20;14.60;;;;;;;29.25;100.00;98629.13;105266;1271;60476;-76
2022/06/30 04:23:05;;;;;;;14.60;13.40;;;;;;;29.29;100.00;98623.84;105268;1271;62119;-78
2022/06/30 04:25:32;;;;;;;14.70;13.50;;;;;;;29.55;100.00;98626.50;105204;1271;74291;-77
2022/06/30 04:28:00;;;;;;;20.70;14.20;;;;;;;29.81;100.00;98628.70;105178;1271;69228;-77
2022/06/30 04:33:13;;;;;;;13.70;12.50;;;;;;;30.26;100.00;98634.71;105327;1271;60580;-76
2022/06/30 04:35:39;;;;;;;13.40;12.10;;;;;;;30.20;100.00;98631.85;105322;1271;60526;-76
2022/06/30 04:38:06;;;;;;;12.60;11.70;;;;;;;30.45;100.00;98637.12;105340;1270;75242;-77
2022/06/30 04:43:19;;;;;;;13.30;11.70;;;;;;;30.36;100.00;98652.64;105305;1271;73647;-77
2022/06/30 04:45:45;;;;;;;12.70;11.70;;;;;;;30.51;100.00;98644.45;105219;1271;60456;-77
2022/06/30 04:48:12;;;;;;;11.90;10.80;;;;;;;30.70;100.00;98647.02;105249;1271;61901;-77
2022/06/30 04:50:40;;;;;;;12.90;11.70;;;;;;;30.93;100.00;98648.27;104914;1271;74701;-76
2022/06/30 04:53:07;;;;;;;12.60;11.60;;;;;;;31.15;100.00;98646.00;105097;1271;70714;-76
2022/06/30 04:55:34;;;;;;;13.50;12.40;;;;;;;31.28;100.00;98648.29;105257;1271;74227;-77
2022/06/30 04:58:01;;;;;;;13.30;12.00;;;;;;;31.51;100.00;98656.96;105246;1271;60454;-77
2022/06/30 05:00:28;;;;;;;14.00;12.30;;;;;;;31.66;100.00;98654.16;105034;1271;60537;-75
2022/06/30 05:02:55;;;;;;;14.30;12.90;;;;;;;31.75;100.00;98649.08;105290;1271;74234;-76
2022/06/30 05:05:21;;;;;;;14.40;12.90;;;;;;;31.80;100.00;98647.13;105041;1271;68603;-76
2022/06/30 05:07:48;;;;;;;13.50;12.40;;;;;;;31.89;100.00;98643.34;105273;1271;74392;-76
2022/06/30 05:10:14;;;;;;;14.50;13.30;;;;;;;32.00;100.00;98642.54;105040;1271;60672;-75
2022/06/30 05:12:41;;;;;;;14.50;12.80;;;;;;;32.18;100.00;98642.00;105314;1271;61243;-76
2022/06/30 05:15:08;;;;;;;14.40;13.20;;;;;;;32.36;100.00;98638.90;105739;1269;74121;-77
2022/06/30 05:17:35;;;;;;;13.60;12.40;;;;;;;32.41;100.00;98646.33;105315;1271;69536;-75
2022/06/30 05:20:03;;;;;;;14.40;13.20;;;;;;;32.48;100.00;98652.01;105302;1271;74439;-76
2022/06/30 05:22:31;;;;;;;15.30;13.60;;;;;;;32.48;100.00;98654.06;105278;1271;60474;-77
2022/06/30 05:27:56;;;;;;;14.10;12.70;;;;;;;32.82;100.00;98641.67;105039;1270;75508;-76
2022/06/30 05:30:23;;;;;;;15.20;13.50;;;;;;;32.66;100.00;98644.77;105322;1271;60879;-76
2022/06/30 05:32:50;;;;;;;14.30;13.10;;;;;;;32.76;100.00;98646.99;105287;1271;74348;-76
2022/06/30 05:35:17;;;;;;;14.50;13.30;;;;;;;32.75;100.00;98648.64;104976;1274;60441;-76
2022/06/30 05:37:43;;;;;;;14.60;13.10;;;;;;;32.54;100.00;98644.27;105224;1271;61059;-76
2022/06/30 05:40:10;;;;;;;15.10;13.80;;;;;;;32.45;100.00;98647.15;105268;1271;74326;-77
2022/06/30 05:42:37;;;;;;;15.70;14.20;;;;;;;32.74;100.00;98642.01;104758;1274;409146;-77
2022/06/30 05:45:05;;;;;;;15.20;13.70;;;;;;;32.87;100.00;98646.64;105602;1271;73090;-77
2022/06/30 05:47:32;;;;;;;16.20;13.50;;;;;;;32.95;100.00;98651.45;105011;1271;60520;-77
2022/06/30 05:49:59;;;;;;;15.20;13.90;;;;;;;33.07;100.00;98645.50;105288;1271;61007;-76
2022/06/30 05:52:26;;;;;;;14.70;13.30;;;;;;;33.14;100.00;98643.32;105289;1271;75619;-72
2022/06/30 05:54:53;;;;;;;15.00;13.50;;;;;;;33.23;100.00;98640.38;105293;1271;69386;-71
2022/06/30 05:57:19;;;;;;;16.20;14.60;;;;;;;33.32;100.00;98639.98;105250;1271;73386;-72
2022/06/30 05:59:46;;;;;;;16.20;14.60;;;;;;;33.27;100.00;98639.32;105255;1271;60472;-72
2022/06/30 06:02:12;;;;;;;15.40;13.80;;;;;;;33.27;100.00;98630.53;105022;1274;60729;-71
2022/06/30 06:04:39;;;;;;;14.50;13.20;;;;;;;33.38;100.00;98636.45;105230;1271;73555;-71
2022/06/30 06:07:06;;;;;;;14.10;13.10;;;;;;;33.40;99.87;98634.55;105269;1271;60581;-73
2022/06/30 06:09:32;;;;;;;15.30;13.90;;;;;;;33.06;100.00;98639.06;105242;1271;74226;-71
2022/06/30 06:11:59;;;;;;;16.50;15.00;;;;;;;33.08;100.00;98640.64;105256;1271;60443;-71
2022/06/30 06:14:26;;;;;;;14.40;12.90;;;;;;;33.23;100.00;98639.06;105271;1271;60684;-71
2022/06/30 06:16:52;;;;;;;16.30;14.80;;;;;;;33.37;100.00;98635.34;105240;1271;75617;-71
2022/06/30 06:19:19;;;;;;;14.90;13.50;;;;;;;33.52;100.00;98640.92;105296;1271;61930;-72
2022/06/30 06:21:45;;;;;;;15.80;14.30;;;;;;;33.59;100.00;98646.31;105260;1271;73182;-72
2022/06/30 06:24:12;;;;;;;16.00;14.60;;;;;;;33.69;100.00;98647.70;105270;1271;60876;-72
2022/06/30 06:26:38;;;;;;;16.90;15.30;;;;;;;33.84;100.00;98650.48;105260;1271;60824;-71
2022/06/30 06:29:05;;;;;;;16.20;14.60;;;;;;;33.78;99.98;98652.86;105279;1271;75282;-73
2022/06/30 06:31:35;;;;;;;16.90;15.30;;;;;;;33.66;99.75;98654.11;105280;1271;68198;-71
2022/06/30 06:34:03;;;;;;;16.30;14.90;;;;;;;33.74;99.66;98659.27;105338;1271;73251;-71
2022/06/30 06:36:30;;;;;;;16.60;15.00;;;;;;;33.74;99.12;98653.49;105165;1274;60802;-72
2022/06/30 06:38:57;;;;;;;15.50;14.20;;;;;;;33.79;98.51;98651.20;105294;1271;61747;-73
2022/06/30 06:41:25;;;;;;;17.00;14.30;;;;;;;33.75;98.59;98653.66;105476;1270;74239;-70
2022/06/30 06:43:52;;;;;;;18.20;16.10;;;;;;;33.77;98.78;98655.00;105293;1271;70245;-73
2022/06/30 06:46:19;;;;;;;16.70;15.00;;;;;;;33.68;98.72;98651.09;105275;1271;74339;-74
2022/06/30 06:48:46;;;;;;;16.40;15.10;;;;;;;33.61;98.76;98650.70;105319;1271;60568;-73
2022/06/30 06:51:12;;;;;;;16.20;14.80;;;;;;;33.52;97.79;98653.14;105301;1270;60500;-71
2022/06/30 06:53:39;;;;;;;16.70;15.00;;;;;;;33.45;99.16;98654.38;105302;1271;75616;-73
2022/06/30 06:56:06;;;;;;;15.60;14.10;;;;;;;33.52;99.25;98658.16;105057;1272;69674;-72
2022/06/30 06:58:33;;;;;;;16.00;14.00;;;;;;;33.63;99.20;98657.45;104952;1274;73328;-72
2022/06/30 07:01:00;;;;;;;16.10;14.70;;;;;;;33.75;99.30;98658.08;105279;1271;60340;-71
2022/06/30 07:03:27;;;;;;;16.90;15.20;;;;;;;33.78;98.97;98661.15;105145;1271;61143;-71
2022/06/30 07:05:53;;;;;;;18.30;16.90;;;;;;;33.79;98.51;98663.92;105286;1271;74809;-71
2022/06/30 07:08:20;;;;;;;18.90;17.00;;;;;;;33.70;98.31;98666.77;105299;1271;67427;-71
2022/06/30 07:10:47;;;;;;;17.00;15.60;;;;;;;33.77;97.96;98663.63;105265;1271;74741;-72
2022/06/30 07:13:13;;;;;;;16.80;15.40;;;;;;;33.71;98.32;98664.72;105293;1271;60453;-72
2022/06/30 07:15:40;;;;;;;16.80;15.30;;;;;;;33.93;99.02;98662.45;105260;1271;60488;-73
2022/06/30 07:18:06;;;;;;;16.10;14.70;;;;;;;34.06;98.50;98657.38;104988;1274;72712;-74
2022/06/30 07:20:33;;;;;;;16.10;14.50;;;;;;;34.12;98.46;98652.46;105292;1271;60461;-72
2022/06/30 07:22:59;;;;;;;15.70;14.10;;;;;;;34.15;98.61;98654.08;105241;1271;60427;-73
2022/06/30 07:25:26;;;;;;;16.50;14.80;;;;;;;34.32;98.58;98648.39;105264;1271;60600;-72
2022/06/30 07:27:53;;;;;;;16.00;14.70;;;;;;;34.35;97.72;98653.28;105280;1271;60456;-72
2022/06/30 07:30:20;;;;;;;17.10;15.60;;;;;;;34.19;97.19;98651.55;105252;1271;75512;-72
2022/06/30 07:32:47;;;;;;;17.00;15.40;;;;;;;34.07;97.45;98648.48;105316;1270;60638;-72
2022/06/30 07:35:14;;;;;;;17.10;15.60;;;;;;;33.98;97.92;98648.61;105269;1271;65494;-73
2022/06/30 07:37:41;;;;;;;19.00;17.00;;;;;;;33.90;98.33;98647.27;105285;1269;60574;-71
2022/06/30 07:40:09;;;;;;;16.80;15.20;;;;;;;33.81;98.44;98642.92;105285;1271;60799;-72
2022/06/30 07:42:36;;;;;;;17.10;15.60;;;;;;;33.65;98.49;98635.81;105125;1271;74531;-71
2022/06/30 07:45:03;;;;;;;18.70;15.80;;;;;;;33.57;98.62;98630.59;105253;1271;70388;-71
2022/06/30 07:47:30;;;;;;;17.60;15.80;;;;;;;33.47;98.96;98630.96;105294;1271;74150;-71
2022/06/30 07:49:57;;;;;;;18.90;17.20;;;;;;;33.33;98.53;98629.83;105157;1271;60560;-71
2022/06/30 07:52:24;;;;;;;19.90;17.10;;;;;;;33.09;98.50;98634.35;105263;1271;62158;-72
2022/06/30 07:54:51;;;;;;;20.70;18.80;;;;;;;32.88;99.28;98638.15;105292;1270;75779;-71
2022/06/30 07:57:21;;;;;;;20.30;18.40;;;;;;;32.77;99.56;98644.11;105225;1271;68951;-71
2022/06/30 07:59:47;;;;;;;20.90;18.70;;;;;;;32.67;99.64;98642.58;105239;1271;71195;-70
2022/06/30 08:02:14;;;;;;;18.70;17.20;;;;;;;32.55;99.68;98640.36;105061;1272;60566;-72
2022/06/30 08:04:40;;;;;;;20.10;18.10;;;;;;;32.51;100.00;98637.95;105273;1271;60697;-71
2022/06/30 08:07:07;;;;;;;18.90;17.00;;;;;;;32.54;100.00;98637.66;105065;1272;60452;-73
2022/06/30 08:09:33;;;;;;;19.20;17.30;;;;;;;32.59;100.00;98644.89;105232;1270;69336;-71
2022/06/30 08:12:00;;;;;;;19.30;17.20;;;;;;;32.67;100.00;98645.88;105247;1271;74477;-70
2022/06/30 08:14:27;;;;;;;18.20;16.60;;;;;;;32.82;100.00;98650.61;105285;1271;60474;-71
2022/06/30 08:16:54;;;;;;;18.00;16.50;;;;;;;32.84;100.00;98653.17;105273;1271;61135;-70
2022/06/30 08:19:21;;;;;;;17.30;16.00;;;;;;;32.94;100.00;98647.20;105082;1271;72622;-71
2022/06/30 08:21:47;;;;;;;17.10;15.60;;;;;;;33.09;100.00;98652.64;105207;1271;70746;-72
2022/06/30 08:24:15;;;;;;;16.90;15.00;;;;;;;33.13;99.93;98654.58;105212;1271;74182;-72
2022/06/30 08:26:42;;;;;;;16.40;14.90;;;;;;;33.15;99.78;98651.55;105535;1271;60524;-71
2022/06/30 08:29:09;;;;;;;16.90;15.10;;;;;;;33.18;98.77;98655.90;105226;1271;61140;-73
2022/06/30 08:31:35;;;;;;;16.60;15.00;;;;;;;33.04;98.12;98650.81;105229;1271;75307;-71
2022/06/30 08:34:03;;;;;;;17.20;15.30;;;;;;;32.99;98.69;98647.27;105266;1271;68441;-72
2022/06/30 08:36:29;;;;;;;17.30;15.80;;;;;;;32.94;97.42;98643.21;105210;1271;74356;-71
2022/06/30 08:38:56;;;;;;;18.30;16.50;;;;;;;32.85;96.98;98641.52;105220;1269;60489;-72
2022/06/30 08:44:11;;;;;;;20.10;17.70;;;;;;;32.44;97.24;98648.67;105363;1269;75502;-72
2022/06/30 08:46:38;;;;;;;;;;;;;;;32.26;98.03;98653.59;105600;1271;70411;-71
2022/06/30 08:49:05;;;;;;;19.40;17.70;;;;;;;32.15;98.65;98656.07;105135;1271;74780;-71
2022/06/30 08:51:35;;;;;;;20.50;18.70;;;;;;;32.16;98.90;98654.44;105198;1271;60511;-71
2022/06/30 08:54:03;;;;;;;19.60;17.70;;;;;;;32.25;99.18;98652.85;105178;1271;62047;-71
2022/06/30 08:56:31;;;;;;;19.10;17.40;;;;;;;32.38;99.82;98644.73;105288;1271;75137;-72
2022/06/30 08:59:01;;;;;;;19.40;17.50;;;;;;;32.53;99.64;98650.11;105483;1270;68659;-71
2022/06/30 09:01:28;;;;;;;19.70;17.70;;;;;;;32.63;99.35;98644.79;105231;1271;74379;-71
2022/06/30 09:03:56;;;;;;;19.20;17.40;;;;;;;32.74;99.75;98645.98;105249;1270;60804;-72
2022/06/30 09:06:23;;;;;;;20.20;18.20;;;;;;;32.88;99.58;98642.02;105271;1271;60786;-72
2022/06/30 09:08:50;;;;;;;19.60;17.70;;;;;;;32.92;98.52;98646.20;105327;1271;74630;-71
2022/06/30 09:11:17;;;;;;;19.50;17.80;;;;;;;32.89;98.12;98649.72;105293;1271;69153;-71
2022/06/30 09:13:48;;;;;;;18.70;17.20;;;;;;;32.87;97.59;98648.02;105047;1274;73107;-74
2022/06/30 09:16:15;;;;;;;20.10;18.30;;;;;;;32.70;97.43;98643.05;105336;1271;60559;-72
2022/06/30 09:18:42;;;;;;;21.50;19.50;;;;;;;32.55;97.56;98643.63;105089;1271;61515;-71
2022/06/30 09:21:19;;;;;;;22.30;20.00;;;;;;;32.58;99.45;98636.67;105268;1269;75480;-72
2022/06/30 09:23:47;;;;;;;23.60;21.60;;;;;;;32.85;99.33;98636.68;105384;1271;69395;-71
2022/06/30 09:26:22;;;;;;;21.00;19.00;;;;;;;32.95;98.63;98638.08;105299;1271;73117;-70
2022/06/30 09:28:54;;;;;;;21.60;19.20;;;;;;;33.08;99.12;98631.04;105236;1271;60533;-72
2022/06/30 09:31:50;;;;;;;22.40;20.50;;;;;;;33.13;97.13;98627.13;105346;1271;61126;-72
2022/06/30 09:34:20;;;;;;;20.60;18.90;;;;;;;32.88;96.59;98622.53;104726;1277;74308;-71
2022/06/30 09:36:51;;;;;;;19.80;18.20;;;;;;;32.70;96.11;98624.90;104859;1277;70927;-73
2022/06/30 09:39:20;;;;;;;21.10;19.00;;;;;;;32.81;97.11;98619.67;104718;1278;74487;-73
2022/06/30 09:41:48;;;;;;;19.50;17.50;;;;;;;32.98;97.03;98618.59;104780;1277;60513;-71
2022/06/30 09:44:15;;;;;;;19.50;17.60;;;;;;;33.12;96.21;98611.86;104680;1277;60819;-71
2022/06/30 09:47:06;;;;;;;18.40;16.60;;;;;;;33.21;95.89;98611.63;104702;1277;60475;-72
2022/06/30 09:49:37;;;;;;;19.50;17.70;;;;;;;33.19;94.01;98612.00;104643;1278;70416;-71
2022/06/30 09:52:16;;;;;;;18.60;16.90;;;;;;;33.21;94.39;98614.39;104709;1277;74127;-72
2022/06/30 09:54:53;;;;;;;18.80;17.10;;;;;;;33.33;95.42;98609.55;104701;1277;60489;-72
2022/06/30 09:57:22;;;;;;;17.90;16.30;;;;;;;33.53;93.45;98606.12;104735;1277;61101;-72
2022/06/30 10:00:11;;;;;;;18.00;16.20;;;;;;;33.45;89.21;98601.98;104961;1277;75283;-71
2022/06/30 10:02:45;;;;;;;18.30;16.10;;;;;;;33.32;84.51;98600.38;104470;1279;70097;-72
2022/06/30 10:05:14;;;;;;;15.90;14.40;;;;;;;33.40;84.85;98602.60;104738;1277;73230;-71
2022/06/30 10:07:42;;;;;;;16.30;14.70;;;;;;;33.53;80.14;98606.84;104696;1277;60609;-71
2022/06/30 10:10:11;;;;;;;14.60;13.50;;;;;;;33.61;77.57;98608.08;104773;1277;61946;-73
2022/06/30 10:12:40;;;;;;;14.80;13.40;;;;;;;33.77;75.89;98606.13;105460;1271;75301;-72
2022/06/30 10:15:08;;;;;;;14.00;12.70;;;;;;;33.95;72.60;98602.63;105230;1271;69183;-72
2022/06/30 10:17:41;;;;;;;13.10;11.90;;;;;;;34.11;71.58;98599.11;105326;1271;73302;-72
2022/06/30 10:20:08;;;;;;;13.70;12.50;;;;;;;34.23;69.10;98596.88;105248;1271;60735;-71
2022/06/30 10:22:35;;;;;;;15.20;13.60;;;;;;;34.21;64.25;98599.68;105342;1271;61336;-73
2022/06/30 10:25:02;;;;;;;15.10;13.80;;;;;;;34.09;60.55;98594.96;105282;1271;65829;-72
2022/06/30 10:27:28;;;;;;;15.20;13.70;;;;;;;33.95;58.50;98592.89;104962;1271;68640;-72
2022/06/30 10:30:01;;;;;;;13.50;12.20;;;;;;;34.03;58.43;98593.95;105267;1271;73415;-73
2022/06/30 10:32:43;;;;;;;10.40;9.50;;;;;;;34.07;55.44;98596.66;105292;1271;60475;-71
2022/06/30 10:35:32;;;;;;;10.90;10.00;;;;;;;34.10;51.61;98590.05;105278;1271;60849;-72
2022/06/30 10:38:20;;;;;;;9.90;9.10;;;;;;;34.17;51.11;98583.23;105280;1271;75569;-71
2022/06/30 10:41:14;;;;;;;12.00;8.90;;;;;;;34.33;50.08;98583.48;105267;1271;61328;-72
2022/06/30 10:44:04;;;;;;;9.80;8.80;;;;;;;34.44;49.12;98577.18;105276;1270;72568;-71
2022/06/30 10:46:33;;;;;;;9.50;8.70;;;;;;;34.59;49.15;98574.95;104574;1280;61236;-71
2022/06/30 10:49:06;;;;;;;9.40;8.70;;;;;;;34.66;49.31;98573.95;104549;1280;61697;-72
2022/06/30 10:51:33;;;;;;;12.40;9.60;;;;;;;34.77;48.88;98574.27;104390;1280;66363;-71
2022/06/30 10:53:59;;;;;;;9.80;8.80;;;;;;;34.81;48.51;98573.08;104537;1280;61667;-71
2022/06/30 10:56:54;;;;;;;12.10;8.50;;;;;;;34.91;49.05;98574.04;104587;1280;65678;-72
2022/06/30 10:59:26;;;;;;;9.00;8.30;;;;;;;35.08;48.01;98571.07;104553;1280;61810;-71
2022/06/30 11:02:08;;;;;;;9.60;8.60;;;;;;;35.12;47.26;98568.70;104507;1280;61144;-72
2022/06/30 11:04:39;;;;;;;10.00;9.00;;;;;;;35.21;46.58;98568.67;104512;1280;66598;-72
2022/06/30 11:07:12;;;;;;;8.90;8.10;;;;;;;35.20;45.99;98562.02;104566;1280;61580;-72
2022/06/30 11:09:47;;;;;;;8.30;7.70;;;;;;;35.24;46.25;98561.36;104593;1280;64890;-72
2022/06/30 11:12:18;;;;;;;9.30;8.40;;;;;;;35.29;45.61;98556.88;104617;1280;61331;-72
2022/06/30 11:14:53;;;;;;;9.70;8.80;;;;;;;35.36;45.15;98556.90;104620;1280;61393;-71
2022/06/30 11:17:31;;;;;;;10.60;8.40;;;;;;;35.39;44.38;98554.57;104568;1279;67663;-72
2022/06/30 11:20:09;;;;;;;8.90;8.10;;;;;;;35.42;44.07;98549.36;104388;1280;61939;-72
2022/06/30 11:22:36;;;;;;;9.10;8.00;;;;;;;35.49;43.51;98544.16;104558;1280;75182;-71
2022/06/30 11:25:04;;;;;;;9.30;8.40;;;;;;;35.56;43.45;98541.35;105141;1271;61431;-73
2022/06/30 11:27:36;;;;;;;9.70;8.70;;;;;;;35.55;42.78;98536.85;105282;1271;61336;-72